Flight Number: AVA5099 Duration: 3:00
Departure: Accra Kotoka Intl (DGAA) at 23:45 Distance: 1183.14 Nm
Arrival: Luanda (FNLU) at 02:45 Equipment: MD-81

Weather Information
Accra, Ghana (DGAA) 05-36N 000-10W 69M May 30, 2020 - 04:00 AM EDT / 2020.05.30 0800 UTC
Wind: from the W (270 degrees) at 5 MPH (4 KT) (direction variable):0
Visibility: greater than 7 mile(s):0
Sky conditions: mostly clear Weather: thunder in the vicinity; Cumulonimbus clouds observed Temperature: 80 F (27 C) Dew Point: 77 F (25 C) Relative Humidity: 88% Pressure (altimeter): 29.88 in. Hg (1012 hPa)
ob: DGAA 300800Z 27004KT 220V290 9999 VCTS FEW030CB 27/25 Q1012 NOSIG cycle: 8
Sunrise: 05:48 Sunset: 18:08 (UTC)

Luanda, Angola (FNLU) 08-51S 013-14E 70M May 30, 2020 - 04:00 AM EDT / 2020.05.30 0800 UTC
Wind: Variable at 3 MPH (3 KT):0
Visibility: greater than 7 mile(s):0
Sky conditions: mostly cloudy Temperature: 78 F (26 C) Dew Point: 73 F (23 C) Relative Humidity: 83% Pressure (altimeter): 29.91 in. Hg (1013 hPa)
ob: FNLU 300800Z VRB03KT 9999 BKN022 26/23 Q1013 NOSIG cycle: 8
Sunrise: 05:18 Sunset: 16:51 (UTC)

TAF:2020/05/30 06:00 TAF FNLU 300500Z 3006/3112 VRB03KT 9999 SCT040 BECMG 3006/3008 8000 FEW015 BKN040 TEMPO 3013/3017 28009KT 9000 NSC

This route has never been flown.

Route map